createdAt,value
2018-12-24T00:00:24.538Z,13.05
2018-12-24T00:01:24.564Z,13.01
2018-12-24T00:02:24.288Z,13.03
2018-12-24T00:03:24.823Z,13
2018-12-24T00:04:24.776Z,13.08
2018-12-24T00:05:24.764Z,12.95
2018-12-24T00:06:24.525Z,12.97
2018-12-24T00:07:24.520Z,13.03
2018-12-24T00:08:24.258Z,12.98
2018-12-24T00:09:24.763Z,12.94
2018-12-24T00:10:24.758Z,13.03
2018-12-24T00:11:24.273Z,12.97
2018-12-24T00:12:24.511Z,12.98
2018-12-24T00:13:24.492Z,12.97
2018-12-24T00:14:24.253Z,13.04
2018-12-24T00:15:24.739Z,13.04
2018-12-24T00:16:24.729Z,13.08
2018-12-24T00:17:24.482Z,13.01
2018-12-24T00:18:27.738Z,13.01
2018-12-24T00:19:24.714Z,13.01
2018-12-24T00:20:24.717Z,13.05
2018-12-24T00:21:24.468Z,13
2018-12-24T00:22:24.731Z,13.11
2018-12-24T00:23:24.465Z,13.01
2018-12-24T00:24:24.705Z,13.05
2018-12-24T00:25:24.461Z,13.13
2018-12-24T00:26:24.734Z,13.19
2018-12-24T00:27:24.697Z,13.13
2018-12-24T00:28:24.232Z,13.23
2018-12-24T00:29:24.703Z,13.12
2018-12-24T00:30:24.425Z,13.15
2018-12-24T00:31:24.736Z,13.2
2018-12-24T00:32:24.682Z,13.15
2018-12-24T00:33:24.807Z,13.22
2018-12-24T00:34:24.525Z,13.16
2018-12-24T00:35:24.417Z,13.25
2018-12-24T00:36:24.672Z,13.18
2018-12-24T00:37:24.177Z,13.22
2018-12-24T00:38:24.418Z,13.12
2018-12-24T00:39:24.406Z,13.09
2018-12-24T00:40:24.408Z,13.03
2018-12-24T00:41:24.426Z,13.18
2018-12-24T00:42:24.647Z,13.04
2018-12-24T00:43:24.402Z,13.13
2018-12-24T00:44:24.633Z,13.16
2018-12-24T00:45:24.488Z,13.11
2018-12-24T00:46:24.401Z,13.15
2018-12-24T00:47:24.406Z,13.12
2018-12-24T00:48:24.375Z,13.09
2018-12-24T00:49:24.388Z,13.13
2018-12-24T00:50:24.369Z,13.03
2018-12-24T00:51:24.687Z,13.04
2018-12-24T00:52:24.364Z,12.98
2018-12-24T00:53:24.114Z,13.01
2018-12-24T00:54:24.350Z,13
2018-12-24T00:55:24.335Z,13.01
2018-12-24T00:56:24.885Z,13.03
2018-12-24T00:57:24.580Z,12.97
2018-12-24T00:58:24.351Z,12.95
2018-12-24T00:59:24.672Z,12.79
2018-12-24T01:00:24.588Z,12.85
2018-12-24T01:01:24.319Z,12.86
2018-12-24T01:02:24.335Z,12.85
2018-12-24T01:03:24.566Z,12.93
2018-12-24T01:04:24.559Z,12.82
2018-12-24T01:05:24.325Z,12.93
2018-12-24T01:06:24.559Z,12.93
2018-12-24T01:07:24.603Z,12.9
2018-12-24T01:08:24.307Z,12.94
2018-12-24T01:09:24.080Z,12.93
2018-12-24T01:10:24.536Z,12.94
2018-12-24T01:11:24.291Z,12.91
2018-12-24T01:12:29.423Z,12.91
2018-12-24T01:13:24.546Z,12.86
2018-12-24T01:14:24.533Z,12.87
2018-12-24T01:15:24.545Z,12.9
2018-12-24T01:16:24.272Z,12.87
2018-12-24T01:17:24.027Z,12.95
2018-12-24T01:18:24.511Z,12.97
2018-12-24T01:19:26.425Z,12.94
2018-12-24T01:20:24.525Z,12.94
2018-12-24T01:21:24.253Z,12.82
2018-12-24T01:22:24.503Z,12.98
2018-12-24T01:23:24.507Z,12.94
2018-12-24T01:24:24.234Z,13.03
2018-12-24T01:25:24.479Z,12.97
2018-12-24T01:26:24.528Z,12.91
2018-12-24T01:27:24.488Z,12.91
2018-12-24T01:28:24.537Z,12.91
2018-12-24T01:29:24.477Z,13.01
2018-12-24T01:30:24.232Z,12.97
2018-12-24T01:31:24.467Z,12.9
2018-12-24T01:32:24.214Z,12.85
2018-12-24T01:33:24.203Z,12.91
2018-12-24T01:34:24.203Z,12.87
2018-12-24T01:35:24.444Z,13
2018-12-24T01:36:24.262Z,12.95
2018-12-24T01:37:24.454Z,12.97
2018-12-24T01:38:24.453Z,13.01
2018-12-24T01:39:24.449Z,12.97
2018-12-24T01:40:24.199Z,12.94
2018-12-24T01:41:24.243Z,12.95
2018-12-24T01:42:33.181Z,12.95
2018-12-24T01:43:24.433Z,12.94
2018-12-24T01:44:24.434Z,12.94
2018-12-24T01:45:24.476Z,12.97
2018-12-24T01:46:24.193Z,13.03
2018-12-24T01:47:24.151Z,12.97
2018-12-24T01:48:24.397Z,12.97
2018-12-24T01:49:24.400Z,12.98
2018-12-24T01:50:24.392Z,13.04
2018-12-24T01:51:24.395Z,13.04
2018-12-24T01:52:24.403Z,13
2018-12-24T01:53:23.893Z,13.01
2018-12-24T01:54:24.406Z,13.03
2018-12-24T01:55:24.144Z,13.01
2018-12-24T01:56:24.133Z,13
2018-12-24T01:57:24.453Z,13.03
2018-12-24T01:58:24.354Z,13.01
2018-12-24T01:59:24.360Z,13.01
2018-12-24T02:00:24.116Z,12.97
2018-12-24T02:01:24.357Z,13
2018-12-24T02:02:24.357Z,13.01
2018-12-24T02:03:24.357Z,13.01
2018-12-24T02:04:26.121Z,12.97
2018-12-24T02:05:24.339Z,12.98
2018-12-24T02:06:24.364Z,13.01
2018-12-24T02:07:24.341Z,12.95
2018-12-24T02:08:24.329Z,12.91
2018-12-24T02:09:24.339Z,12.97
2018-12-24T02:10:24.319Z,12.9
2018-12-24T02:11:24.199Z,12.94
2018-12-24T02:12:24.071Z,12.83
2018-12-24T02:13:24.318Z,12.97
2018-12-24T02:14:24.330Z,12.93
2018-12-24T02:15:24.315Z,12.97
2018-12-24T02:16:24.068Z,12.93
2018-12-24T02:17:24.302Z,12.68
2018-12-24T02:18:24.281Z,11.87
2018-12-24T02:19:24.276Z,11.33
2018-12-24T02:20:24.259Z,10.64
2018-12-24T02:21:24.280Z,10.09
2018-12-24T02:22:23.772Z,9.73
2018-12-24T02:23:24.054Z,9.4
2018-12-24T02:24:24.267Z,9.29
2018-12-24T02:25:24.268Z,9.13
2018-12-24T02:26:24.297Z,9.04
2018-12-24T02:27:24.236Z,8.89
2018-12-24T02:28:24.001Z,8.71
2018-12-24T02:29:23.983Z,8.71
2018-12-24T02:30:24.239Z,8.71
2018-12-24T02:31:23.988Z,8.58
2018-12-24T02:32:24.217Z,8.6
2018-12-24T02:33:24.202Z,8.58
2018-12-24T02:34:23.975Z,8.55
2018-12-24T02:35:24.188Z,8.64
2018-12-24T02:36:23.994Z,8.63
2018-12-24T02:37:24.176Z,8.69
2018-12-24T02:38:24.162Z,8.79
2018-12-24T02:39:23.924Z,8.71
2018-12-24T02:40:24.159Z,8.79
2018-12-24T02:41:23.911Z,8.71
2018-12-24T02:42:24.145Z,8.73
2018-12-24T02:43:23.887Z,8.71
2018-12-24T02:44:24.132Z,8.91
2018-12-24T02:45:23.872Z,8.89
2018-12-24T02:46:23.696Z,8.91
2018-12-24T02:47:24.122Z,8.94
2018-12-24T02:48:24.145Z,8.89
2018-12-24T02:49:24.094Z,8.97
2018-12-24T02:50:23.921Z,8.97
2018-12-24T02:51:24.159Z,8.99
2018-12-24T02:52:24.095Z,8.97
2018-12-24T02:53:24.080Z,8.94
2018-12-24T02:54:23.826Z,8.94
2018-12-24T02:55:23.828Z,8.92
2018-12-24T02:56:24.055Z,8.94
2018-12-24T02:57:24.060Z,8.97
2018-12-24T02:58:24.048Z,8.95
2018-12-24T02:59:24.048Z,8.85
2018-12-24T03:00:23.790Z,8.97
2018-12-24T03:01:24.056Z,8.88
2018-12-24T03:02:24.020Z,8.88
2018-12-24T03:03:23.773Z,8.92
2018-12-24T03:04:24.003Z,8.89
2018-12-24T03:05:25.898Z,8.88
2018-12-24T03:06:23.809Z,8.91
2018-12-24T03:07:23.728Z,8.88
2018-12-24T03:08:23.724Z,8.91
2018-12-24T03:09:23.962Z,8.88
2018-12-24T03:10:23.962Z,8.88
2018-12-24T03:11:23.999Z,8.91
2018-12-24T03:12:24.004Z,8.91
2018-12-24T03:13:23.694Z,8.87
2018-12-24T03:14:23.940Z,8.87
2018-12-24T03:15:23.727Z,8.95
2018-12-24T03:16:23.930Z,8.87
2018-12-24T03:17:23.908Z,8.87
2018-12-24T03:18:23.910Z,8.94
2018-12-24T03:19:23.909Z,8.79
2018-12-24T03:20:23.700Z,8.84
2018-12-24T03:21:23.885Z,8.78
2018-12-24T03:22:23.868Z,8.78
2018-12-24T03:23:23.638Z,8.92
2018-12-24T03:24:23.857Z,8.87
2018-12-24T03:25:23.656Z,8.81
2018-12-24T03:26:23.918Z,8.91
2018-12-24T03:27:23.846Z,8.94
2018-12-24T03:28:23.598Z,8.85
2018-12-24T03:29:23.839Z,8.79
2018-12-24T03:30:23.373Z,8.89
2018-12-24T03:31:23.592Z,8.85
2018-12-24T03:32:23.619Z,8.87
2018-12-24T03:33:23.569Z,8.79
2018-12-24T03:34:23.806Z,8.81
2018-12-24T03:35:24.658Z,8.82
2018-12-24T03:36:23.823Z,8.84
2018-12-24T03:37:23.784Z,8.84
2018-12-24T03:38:23.785Z,8.81
2018-12-24T03:39:23.775Z,8.81
2018-12-24T03:40:23.781Z,8.73
2018-12-24T03:41:23.573Z,8.66
2018-12-24T03:42:23.784Z,8.71
2018-12-24T03:43:23.517Z,8.87
2018-12-24T03:44:23.772Z,8.82
2018-12-24T03:45:23.501Z,8.85
2018-12-24T03:46:23.836Z,8.82
2018-12-24T03:47:23.571Z,8.85
2018-12-24T03:48:23.715Z,8.78
2018-12-24T03:49:23.685Z,8.84
2018-12-24T03:50:27.499Z,8.69
2018-12-24T03:51:23.546Z,8.74
2018-12-24T03:52:23.168Z,8.67
2018-12-24T03:53:23.671Z,8.69
2018-12-24T03:54:23.176Z,8.67
2018-12-24T03:55:23.658Z,8.71
2018-12-24T03:56:23.466Z,8.7
2018-12-24T03:57:23.393Z,8.64
2018-12-24T03:58:23.644Z,8.6
2018-12-24T03:59:23.640Z,8.51
2018-12-24T04:00:23.401Z,8.63
2018-12-24T04:01:23.615Z,8.51
2018-12-24T04:02:23.619Z,8.53
2018-12-24T04:03:23.596Z,8.51
2018-12-24T04:04:23.585Z,8.52
2018-12-24T04:05:23.333Z,8.45
2018-12-24T04:06:24.316Z,8.41
2018-12-24T04:07:23.569Z,8.31
2018-12-24T04:08:23.566Z,8.31
2018-12-24T04:09:23.547Z,8.31
2018-12-24T04:10:23.556Z,8.3
2018-12-24T04:11:24.206Z,8.24
2018-12-24T04:12:23.529Z,8.2
2018-12-24T04:13:27.434Z,8.19
2018-12-24T04:14:23.507Z,8.16
2018-12-24T04:15:23.248Z,8.16
2018-12-24T04:16:23.574Z,8.05
2018-12-24T04:17:23.496Z,8.18
2018-12-24T04:18:23.493Z,8.06
2018-12-24T04:19:23.486Z,8.12
2018-12-24T04:20:23.377Z,8.09
2018-12-24T04:21:25.291Z,7.98
2018-12-24T04:22:23.460Z,7.94
2018-12-24T04:23:23.202Z,8
2018-12-24T04:24:23.435Z,7.94
2018-12-24T04:25:23.430Z,7.91
2018-12-24T04:26:23.525Z,7.94
2018-12-24T04:27:23.414Z,7.97
2018-12-24T04:28:23.417Z,7.91
2018-12-24T04:29:23.409Z,7.91
2018-12-24T04:30:23.395Z,7.93
2018-12-24T04:31:23.144Z,7.88
2018-12-24T04:32:23.139Z,7.91
2018-12-24T04:33:23.391Z,7.88
2018-12-24T04:34:23.105Z,7.98
2018-12-24T04:35:23.336Z,7.98
2018-12-24T04:36:24.525Z,7.95
2018-12-24T04:37:23.336Z,7.91
2018-12-24T04:38:23.070Z,7.94
2018-12-24T04:39:23.302Z,7.88
2018-12-24T04:40:23.330Z,7.98
2018-12-24T04:41:23.362Z,7.9
2018-12-24T04:42:23.065Z,7.97
2018-12-24T04:43:31.799Z,7.97
2018-12-24T04:44:23.050Z,7.85
2018-12-24T04:45:23.047Z,7.95
2018-12-24T04:46:23.291Z,7.97
2018-12-24T04:47:23.063Z,7.88
2018-12-24T04:48:22.764Z,7.9
2018-12-24T04:49:23.246Z,7.93
2018-12-24T04:50:23.246Z,7.93
2018-12-24T04:51:22.983Z,7.93
2018-12-24T04:52:22.984Z,7.97
2018-12-24T04:53:22.973Z,7.94
2018-12-24T04:54:22.998Z,8.03
2018-12-24T04:55:23.199Z,7.98
2018-12-24T04:56:22.953Z,7.93
2018-12-24T04:57:23.199Z,7.94
2018-12-24T04:58:23.203Z,7.98
2018-12-24T04:59:22.922Z,7.85
2018-12-24T05:00:22.927Z,7.93
2018-12-24T05:01:23.176Z,7.91
2018-12-24T05:02:22.897Z,7.83
2018-12-24T05:03:23.145Z,7.9
2018-12-24T05:04:23.144Z,7.85
2018-12-24T05:05:23.144Z,7.88
2018-12-24T05:06:22.982Z,7.88
2018-12-24T05:07:23.099Z,7.8
2018-12-24T05:08:22.881Z,7.77
2018-12-24T05:09:23.133Z,7.79
2018-12-24T05:10:23.094Z,7.72
2018-12-24T05:11:23.082Z,7.79
2018-12-24T05:12:22.824Z,7.73
2018-12-24T05:13:23.064Z,7.76
2018-12-24T05:14:23.056Z,7.8
2018-12-24T05:15:22.791Z,7.75
2018-12-24T05:16:23.064Z,7.67
2018-12-24T05:17:22.538Z,7.7
2018-12-24T05:18:22.777Z,7.75
2018-12-24T05:19:22.772Z,7.69
2018-12-24T05:20:22.754Z,7.7
2018-12-24T05:21:22.987Z,7.7
2018-12-24T05:22:22.481Z,7.58
2018-12-24T05:23:22.973Z,7.6
2018-12-24T05:24:22.495Z,7.58
2018-12-24T05:25:22.722Z,7.69
2018-12-24T05:26:22.454Z,7.6
2018-12-24T05:27:23.774Z,7.47
2018-12-24T05:28:22.957Z,7.5
2018-12-24T05:29:22.687Z,7.51
2018-12-24T05:30:22.426Z,7.47
2018-12-24T05:31:22.664Z,7.54
2018-12-24T05:32:22.911Z,7.5
2018-12-24T05:33:22.932Z,7.45
2018-12-24T05:34:22.645Z,7.38
2018-12-24T05:35:22.871Z,7.42
2018-12-24T05:36:22.918Z,7.4
2018-12-24T05:37:22.621Z,7.39
2018-12-24T05:38:22.859Z,7.29
2018-12-24T05:39:22.872Z,7.36
2018-12-24T05:40:22.593Z,7.39
2018-12-24T05:41:22.649Z,7.4
2018-12-24T05:42:22.576Z,7.36
2018-12-24T05:43:22.582Z,7.39
2018-12-24T05:44:22.841Z,7.33
2018-12-24T05:45:22.797Z,7.39
2018-12-24T05:46:22.883Z,7.31
2018-12-24T05:47:22.777Z,7.39
2018-12-24T05:48:22.775Z,7.35
2018-12-24T05:49:22.529Z,7.33
2018-12-24T05:50:22.777Z,7.32
2018-12-24T05:51:22.868Z,7.31
2018-12-24T05:52:22.512Z,7.31
2018-12-24T05:53:22.725Z,7.32
2018-12-24T05:54:22.490Z,7.28
2018-12-24T05:55:22.722Z,7.25
2018-12-24T05:56:22.509Z,7.29
2018-12-24T05:57:22.691Z,7.32
2018-12-24T05:58:22.441Z,7.29
2018-12-24T05:59:22.678Z,7.32
2018-12-24T06:00:22.441Z,7.21
2018-12-24T06:01:22.440Z,7.28
2018-12-24T06:02:22.671Z,7.23
2018-12-24T06:03:22.679Z,7.21
2018-12-24T06:04:24.689Z,7.13
2018-12-24T06:05:22.168Z,7.13
2018-12-24T06:06:22.756Z,7.13
2018-12-24T06:07:22.442Z,7.13
2018-12-24T06:08:22.395Z,7.15
2018-12-24T06:09:22.355Z,7.18
2018-12-24T06:10:22.353Z,7.17
2018-12-24T06:11:22.382Z,7.11
2018-12-24T06:12:22.356Z,7.07
2018-12-24T06:13:22.356Z,7.17
2018-12-24T06:14:22.322Z,7.07
2018-12-24T06:15:22.306Z,7.1
2018-12-24T06:16:22.631Z,7.14
2018-12-24T06:17:22.285Z,7.03
2018-12-24T06:18:22.554Z,7.13
2018-12-24T06:19:22.554Z,7.13
2018-12-24T06:20:22.546Z,7.13
2018-12-24T06:21:22.314Z,7.18
2018-12-24T06:22:23.754Z,7.14
2018-12-24T06:23:22.003Z,7.05
2018-12-24T06:24:22.493Z,7.14
2018-12-24T06:25:22.527Z,7.2
2018-12-24T06:26:22.281Z,7.05
2018-12-24T06:27:22.451Z,7.07
2018-12-24T06:28:22.486Z,7.14
2018-12-24T06:29:22.441Z,7.13
2018-12-24T06:30:22.426Z,7.17
2018-12-24T06:31:22.482Z,7.14
2018-12-24T06:32:22.426Z,7.18
2018-12-24T06:33:22.527Z,7.13
2018-12-24T06:34:22.400Z,7.1
2018-12-24T06:35:22.159Z,7.17
2018-12-24T06:36:21.969Z,7.17
2018-12-24T06:37:22.369Z,7.15
2018-12-24T06:38:22.126Z,7.13
2018-12-24T06:39:22.353Z,7.15
2018-12-24T06:40:22.100Z,7.14
2018-12-24T06:41:22.199Z,7.13
2018-12-24T06:42:22.860Z,7.1
2018-12-24T06:43:22.083Z,7.21
2018-12-24T06:44:22.315Z,7.17
2018-12-24T06:45:21.933Z,7.13
2018-12-24T06:46:22.378Z,7.14
2018-12-24T06:47:22.299Z,7.15
2018-12-24T06:48:22.282Z,7.13
2018-12-24T06:49:22.278Z,7.14
2018-12-24T06:50:22.275Z,7.18
2018-12-24T06:51:22.094Z,7.1
2018-12-24T06:52:22.000Z,7.2
2018-12-24T06:53:22.001Z,7.15
2018-12-24T06:54:22.254Z,7.17
2018-12-24T06:55:21.987Z,7.14
2018-12-24T06:56:22.278Z,7.2
2018-12-24T06:57:22.211Z,7.2
2018-12-24T06:58:22.212Z,7.21
2018-12-24T06:59:22.204Z,7.18
2018-12-24T07:00:21.699Z,7.15
2018-12-24T07:01:22.233Z,7.14
2018-12-24T07:02:22.226Z,7.17
2018-12-24T07:03:22.712Z,7.17
2018-12-24T07:04:21.922Z,7.17
2018-12-24T07:05:21.673Z,7.2
2018-12-24T07:06:22.019Z,7.17
2018-12-24T07:07:21.916Z,7.2
2018-12-24T07:08:22.179Z,7.14
2018-12-24T07:09:21.930Z,7.17
2018-12-24T07:10:22.104Z,7.2
2018-12-24T07:11:21.863Z,7.15
2018-12-24T07:12:22.091Z,7.17
2018-12-24T07:13:22.102Z,7.15
2018-12-24T07:14:22.071Z,7.2
2018-12-24T07:15:22.122Z,7.17
2018-12-24T07:16:21.933Z,7.18
2018-12-24T07:17:22.057Z,7.23
2018-12-24T07:18:22.043Z,7.23
2018-12-24T07:19:21.789Z,7.21
2018-12-24T07:20:22.062Z,7.31
2018-12-24T07:21:21.825Z,7.29
2018-12-24T07:22:22.035Z,7.31
2018-12-24T07:23:21.808Z,7.25
2018-12-24T07:24:22.064Z,7.21
2018-12-24T07:25:21.987Z,7.29
2018-12-24T07:26:22.017Z,7.24
2018-12-24T07:27:21.976Z,7.21
2018-12-24T07:28:21.723Z,7.24
2018-12-24T07:29:21.466Z,7.32
2018-12-24T07:30:21.940Z,7.25
2018-12-24T07:31:22.504Z,7.28
2018-12-24T07:32:21.935Z,7.21
2018-12-24T07:33:21.448Z,7.32
2018-12-24T07:34:21.668Z,7.28
2018-12-24T07:35:21.689Z,7.29
2018-12-24T07:36:21.742Z,7.29
2018-12-24T07:37:21.665Z,7.24
2018-12-24T07:38:21.691Z,7.25
2018-12-24T07:39:21.638Z,7.29
2018-12-24T07:40:21.680Z,7.28
2018-12-24T07:41:21.891Z,7.24
2018-12-24T07:42:21.616Z,7.28
2018-12-24T07:43:21.600Z,7.23
2018-12-24T07:44:29.071Z,7.24
2018-12-24T07:45:21.596Z,7.24
2018-12-24T07:46:21.822Z,7.24
2018-12-24T07:47:21.836Z,7.33
2018-12-24T07:48:21.833Z,7.25
2018-12-24T07:49:21.561Z,7.29
2018-12-24T07:50:21.806Z,7.25
2018-12-24T07:51:21.287Z,7.33
2018-12-24T07:52:21.779Z,7.17
2018-12-24T07:53:22.221Z,7.17
2018-12-24T07:54:21.755Z,7.15
2018-12-24T07:55:21.745Z,7.17
2018-12-24T07:56:21.586Z,7.17
2018-12-24T07:57:21.508Z,7.11
2018-12-24T07:58:21.736Z,7.14
2018-12-24T07:59:21.469Z,7.15
2018-12-24T08:00:21.470Z,7.17
2018-12-24T08:01:21.529Z,7.14
2018-12-24T08:02:21.705Z,7.14
2018-12-24T08:03:21.441Z,7.17
2018-12-24T08:04:21.435Z,7.14
2018-12-24T08:05:21.678Z,7.07
2018-12-24T08:06:21.438Z,7.13
2018-12-24T08:07:21.415Z,7.15
2018-12-24T08:08:23.551Z,7.13
2018-12-24T08:09:21.634Z,7.15
2018-12-24T08:10:21.388Z,7.13
2018-12-24T08:11:21.413Z,7.13
2018-12-24T08:12:21.632Z,7.15
2018-12-24T08:13:21.445Z,7.14
2018-12-24T08:14:21.352Z,7.17
2018-12-24T08:15:21.344Z,7.11
2018-12-24T08:16:21.355Z,7.15
2018-12-24T08:17:21.474Z,7.17
2018-12-24T08:18:21.575Z,7.15
2018-12-24T08:19:21.580Z,7.14
2018-12-24T08:20:21.085Z,7.15
2018-12-24T08:21:21.548Z,7.15
2018-12-24T08:22:21.054Z,7.11
2018-12-24T08:23:21.293Z,7.2
2018-12-24T08:24:21.278Z,7.2
2018-12-24T08:25:21.523Z,7.24
2018-12-24T08:26:21.527Z,7.28
2018-12-24T08:27:21.517Z,7.28
2018-12-24T08:28:21.493Z,7.28
2018-12-24T08:29:21.481Z,7.21
2018-12-24T08:30:21.228Z,7.25
2018-12-24T08:31:21.303Z,7.29
2018-12-24T08:32:21.232Z,7.28
2018-12-24T08:33:21.464Z,7.29
2018-12-24T08:34:21.474Z,7.25
2018-12-24T08:35:21.181Z,7.31
2018-12-24T08:36:20.963Z,7.33
2018-12-24T08:37:21.176Z,7.25
2018-12-24T08:38:21.166Z,7.38
2018-12-24T08:39:22.214Z,7.29
2018-12-24T08:40:21.175Z,7.36
2018-12-24T08:41:21.397Z,7.32
2018-12-24T08:42:20.891Z,7.39
2018-12-24T08:43:21.413Z,7.4
2018-12-24T08:44:21.134Z,7.39
2018-12-24T08:45:21.477Z,7.43
2018-12-24T08:46:21.370Z,7.45
2018-12-24T08:47:21.349Z,7.43
2018-12-24T08:48:21.103Z,7.51
2018-12-24T08:49:21.088Z,7.53
2018-12-24T08:50:21.344Z,7.51
2018-12-24T08:51:21.480Z,7.51
2018-12-24T08:52:21.109Z,7.48
2018-12-24T08:53:21.058Z,7.4
2018-12-24T08:54:24.745Z,7.43
2018-12-24T08:55:21.051Z,7.48
2018-12-24T08:56:21.090Z,7.35
2018-12-24T08:57:21.023Z,7.33
2018-12-24T08:58:20.873Z,7.36
2018-12-24T08:59:21.006Z,7.31
2018-12-24T09:00:21.243Z,7.35
2018-12-24T09:01:21.042Z,7.31
2018-12-24T09:02:21.238Z,7.24
2018-12-24T09:03:20.979Z,7.29
2018-12-24T09:04:20.994Z,7.29
2018-12-24T09:05:21.214Z,7.2
2018-12-24T09:06:21.230Z,7.2
2018-12-24T09:07:21.210Z,7.18
2018-12-24T09:08:21.192Z,7.07
2018-12-24T09:09:21.264Z,7.17
2018-12-24T09:10:21.039Z,7.2
2018-12-24T09:11:21.234Z,7.18
2018-12-24T09:12:20.911Z,7.21
2018-12-24T09:13:21.144Z,7.23
2018-12-24T09:14:20.881Z,7.28
2018-12-24T09:15:20.886Z,7.21
2018-12-24T09:16:20.910Z,7.29
2018-12-24T09:17:20.884Z,7.28
2018-12-24T09:18:20.860Z,7.31
2018-12-24T09:19:20.859Z,7.33
2018-12-24T09:20:20.855Z,7.39
2018-12-24T09:21:21.102Z,7.39
2018-12-24T09:22:20.836Z,7.45
2018-12-24T09:23:20.831Z,7.47
2018-12-24T09:24:21.060Z,7.39
2018-12-24T09:25:22.314Z,7.36
2018-12-24T09:26:20.818Z,7.4
2018-12-24T09:27:20.795Z,7.42
2018-12-24T09:28:21.027Z,7.43
2018-12-24T09:29:20.775Z,7.51
2018-12-24T09:30:20.774Z,7.48
2018-12-24T09:31:20.910Z,7.58
2018-12-24T09:32:21.009Z,7.54
2018-12-24T09:33:21.034Z,7.6
2018-12-24T09:34:21.014Z,7.63
2018-12-24T09:35:20.749Z,7.6
2018-12-24T09:36:20.833Z,7.69
2018-12-24T09:37:20.713Z,7.69
2018-12-24T09:38:20.962Z,7.76
2018-12-24T09:39:20.711Z,7.75
2018-12-24T09:40:20.987Z,7.79
2018-12-24T09:41:20.736Z,7.8
2018-12-24T09:42:20.959Z,7.8
2018-12-24T09:43:20.932Z,7.83
2018-12-24T09:44:20.968Z,7.8
2018-12-24T09:45:20.659Z,7.79
2018-12-24T09:46:20.987Z,7.79
2018-12-24T09:47:20.402Z,7.82
2018-12-24T09:48:20.641Z,7.79
2018-12-24T09:49:20.875Z,7.87
2018-12-24T09:50:20.871Z,7.88
2018-12-24T09:51:20.905Z,7.83
2018-12-24T09:52:20.613Z,7.87
2018-12-24T09:53:20.850Z,7.83
2018-12-24T09:54:20.843Z,7.8
2018-12-24T09:55:22.098Z,7.73
2018-12-24T09:56:20.866Z,7.8
2018-12-24T09:57:20.595Z,7.8
2018-12-24T09:58:20.816Z,7.82
2018-12-24T09:59:20.806Z,7.79
2018-12-24T10:00:20.825Z,7.8
2018-12-24T10:01:20.651Z,7.88
2018-12-24T10:02:21.009Z,7.88
2018-12-24T10:03:20.642Z,7.9
2018-12-24T10:04:20.783Z,7.93
2018-12-24T10:05:20.522Z,7.91
2018-12-24T10:06:20.578Z,7.9
2018-12-24T10:07:20.510Z,8.03
2018-12-24T10:08:20.758Z,8
2018-12-24T10:09:20.733Z,7.97
2018-12-24T10:10:20.728Z,8.01
2018-12-24T10:11:20.485Z,7.97
2018-12-24T10:12:20.465Z,8
2018-12-24T10:13:20.719Z,8.01
2018-12-24T10:14:20.461Z,8
2018-12-24T10:15:20.451Z,7.91
2018-12-24T10:16:20.472Z,7.95
2018-12-24T10:17:20.694Z,7.94
2018-12-24T10:18:20.685Z,8.05
2018-12-24T10:19:20.672Z,8.01
2018-12-24T10:20:20.414Z,8
2018-12-24T10:21:20.687Z,7.98
2018-12-24T10:22:20.644Z,7.94
2018-12-24T10:23:20.408Z,7.95
2018-12-24T10:24:20.408Z,7.94
2018-12-24T10:25:22.992Z,7.93
2018-12-24T10:26:20.541Z,7.9
2018-12-24T10:27:20.123Z,7.93
2018-12-24T10:28:20.627Z,7.9
2018-12-24T10:29:21.814Z,7.83
2018-12-24T10:30:20.600Z,7.8
2018-12-24T10:31:20.628Z,7.93
2018-12-24T10:32:20.333Z,7.94
2018-12-24T10:33:20.579Z,7.93
2018-12-24T10:34:20.571Z,7.91
2018-12-24T10:35:20.076Z,8
2018-12-24T10:36:20.572Z,8.05
2018-12-24T10:37:20.318Z,8.01
2018-12-24T10:38:20.300Z,8.06
2018-12-24T10:39:20.538Z,7.98
2018-12-24T10:40:20.303Z,7.98
2018-12-24T10:41:20.604Z,8.06
2018-12-24T10:42:20.513Z,8.08
2018-12-24T10:43:20.504Z,8.06
2018-12-24T10:44:20.502Z,8.06
2018-12-24T10:45:21.680Z,8.18
2018-12-24T10:46:20.398Z,8.19
2018-12-24T10:47:20.482Z,8.08
2018-12-24T10:48:20.241Z,8.16
2018-12-24T10:49:20.527Z,8.23
2018-12-24T10:50:20.480Z,8.2
2018-12-24T10:51:20.590Z,8.15
2018-12-24T10:52:20.209Z,8.2
2018-12-24T10:53:20.191Z,8.18
2018-12-24T10:54:20.430Z,8.18
2018-12-24T10:55:20.437Z,8.12
2018-12-24T10:56:20.776Z,8.15
2018-12-24T10:57:20.176Z,8.18
2018-12-24T10:58:19.927Z,8.2
2018-12-24T10:59:20.160Z,8.16
2018-12-24T11:00:20.481Z,8.16
2018-12-24T11:01:20.222Z,8.16
2018-12-24T11:02:20.390Z,8.15
2018-12-24T11:03:19.896Z,8.1
2018-12-24T11:04:20.130Z,8.24
2018-12-24T11:05:20.379Z,8.26
2018-12-24T11:06:20.451Z,8.2
2018-12-24T11:07:20.380Z,8.18
2018-12-24T11:08:20.106Z,8.2
2018-12-24T11:09:20.355Z,8.16
2018-12-24T11:10:20.086Z,8.15
2018-12-24T11:11:20.423Z,8.16
2018-12-24T11:12:20.334Z,8.18
2018-12-24T11:13:20.059Z,8.16
2018-12-24T11:14:20.324Z,8.2
2018-12-24T11:15:27.277Z,8.15
2018-12-24T11:16:20.106Z,8.18
2018-12-24T11:17:20.295Z,8.01
2018-12-24T11:18:20.040Z,8.15
2018-12-24T11:19:19.774Z,8.09
2018-12-24T11:20:19.776Z,8.18
2018-12-24T11:21:20.275Z,8.16
2018-12-24T11:22:20.257Z,8.18
2018-12-24T11:23:20.248Z,8.2
2018-12-24T11:24:20.249Z,8.28
2018-12-24T11:25:20.251Z,8.16
2018-12-24T11:26:20.384Z,8.19
2018-12-24T11:27:20.053Z,8.19
2018-12-24T11:28:20.212Z,8.13
2018-12-24T11:29:19.961Z,8.15
2018-12-24T11:30:20.269Z,8.16
2018-12-24T11:31:20.273Z,8.18
2018-12-24T11:32:19.936Z,8.23
2018-12-24T11:33:20.174Z,8.18
2018-12-24T11:34:19.926Z,8.15
2018-12-24T11:35:20.159Z,8.19
2018-12-24T11:36:19.996Z,8.18
2018-12-24T11:37:20.150Z,8.12
2018-12-24T11:38:20.161Z,8.18
2018-12-24T11:39:20.003Z,8.19
2018-12-24T11:40:20.140Z,8.16
2018-12-24T11:41:21.229Z,8.19
2018-12-24T11:42:19.628Z,8.2
2018-12-24T11:43:19.871Z,8.15
2018-12-24T11:44:19.861Z,8.15
2018-12-24T11:45:20.105Z,8.26
2018-12-24T11:46:19.885Z,8.15
2018-12-24T11:47:19.844Z,8.18
2018-12-24T11:48:19.581Z,8.16
2018-12-24T11:49:20.078Z,8.16
2018-12-24T11:50:20.069Z,7.95
2018-12-24T11:51:19.823Z,7.93
2018-12-24T11:52:19.844Z,7.88
2018-12-24T11:53:20.046Z,7.85
2018-12-24T11:54:20.045Z,7.75
2018-12-24T11:55:20.046Z,7.73
2018-12-24T11:56:23.537Z,7.69
2018-12-24T11:57:20.039Z,7.6
2018-12-24T11:58:21.287Z,7.6
2018-12-24T11:59:20.011Z,7.42
2018-12-24T12:00:19.523Z,7.36
2018-12-24T12:01:19.605Z,7.35
2018-12-24T12:02:19.990Z,7.29
2018-12-24T12:03:19.974Z,7.32
2018-12-24T12:04:19.766Z,7.31
2018-12-24T12:05:19.972Z,7.25
2018-12-24T12:06:24.648Z,7.25
2018-12-24T12:07:19.953Z,7.33
2018-12-24T12:08:19.686Z,7.33
2018-12-24T12:09:19.688Z,7.31
2018-12-24T12:10:19.436Z,7.36
2018-12-24T12:11:19.945Z,7.33
2018-12-24T12:12:19.908Z,7.38
2018-12-24T12:13:19.665Z,7.47
2018-12-24T12:14:19.658Z,7.4
2018-12-24T12:15:19.651Z,7.54
2018-12-24T12:16:19.679Z,7.6
2018-12-24T12:17:19.401Z,7.69
2018-12-24T12:18:19.629Z,7.79
2018-12-24T12:19:19.621Z,7.8
2018-12-24T12:20:19.614Z,7.85
2018-12-24T12:21:19.919Z,7.88
2018-12-24T12:22:21.502Z,7.79
2018-12-24T12:23:19.833Z,7.83
2018-12-24T12:24:19.843Z,7.87
2018-12-24T12:25:19.829Z,7.87
2018-12-24T12:26:19.844Z,7.88
2018-12-24T12:27:24.362Z,7.79
2018-12-24T12:28:21.520Z,7.82
2018-12-24T12:29:19.819Z,7.67
2018-12-24T12:30:19.804Z,7.75
2018-12-24T12:31:19.302Z,7.69
2018-12-24T12:32:19.792Z,7.58
2018-12-24T12:33:19.537Z,7.57
2018-12-24T12:34:19.755Z,7.58
2018-12-24T12:35:19.754Z,7.61
2018-12-24T12:36:19.833Z,7.58
2018-12-24T12:37:19.242Z,7.66
2018-12-24T12:38:19.732Z,7.58
2018-12-24T12:39:19.737Z,7.67
2018-12-24T12:40:19.484Z,7.72
2018-12-24T12:41:19.476Z,7.82
2018-12-24T12:42:20.192Z,7.82
2018-12-24T12:43:20.315Z,7.83
2018-12-24T12:44:19.701Z,7.8
2018-12-24T12:45:19.451Z,7.91
2018-12-24T12:46:19.673Z,7.94
2018-12-24T12:47:19.188Z,7.94
2018-12-24T12:48:21.322Z,8.01
2018-12-24T12:49:19.413Z,8.01
2018-12-24T12:50:19.409Z,8.2
2018-12-24T12:51:19.420Z,8.18
2018-12-24T12:52:19.645Z,8.16
2018-12-24T12:53:19.630Z,8.06
2018-12-24T12:54:19.642Z,8.06
2018-12-24T12:55:19.377Z,8.06
2018-12-24T12:56:19.615Z,8.01
2018-12-24T12:57:19.607Z,7.98
2018-12-24T12:58:19.362Z,7.85
2018-12-24T12:59:19.357Z,7.94
2018-12-24T13:00:19.335Z,7.83
2018-12-24T13:01:19.658Z,7.8
2018-12-24T13:02:21.452Z,7.82
2018-12-24T13:03:19.571Z,7.87
2018-12-24T13:04:19.313Z,7.87
2018-12-24T13:05:19.554Z,7.76
2018-12-24T13:06:19.379Z,7.79
2018-12-24T13:07:19.304Z,7.83
2018-12-24T13:08:19.535Z,7.8
2018-12-24T13:09:19.305Z,7.76
2018-12-24T13:10:19.272Z,7.94
2018-12-24T13:11:19.566Z,7.85
2018-12-24T13:12:19.267Z,7.8
2018-12-24T13:13:19.303Z,7.88
2018-12-24T13:14:19.511Z,7.87
2018-12-24T13:15:19.483Z,7.8
2018-12-24T13:16:19.476Z,7.8
2018-12-24T13:17:19.242Z,7.83